sensor_id;sensor_type;location;lat;lon;timestamp;pressure;altitude;pressure_sealevel;temperature;humidity
29935;BME280;19905;53.370;-6.314;2023-06-01T00:01:03;102367.47;;;14.70;100.00
29935;BME280;19905;53.370;-6.314;2023-06-01T00:03:32;102367.88;;;14.52;100.00
29935;BME280;19905;53.370;-6.314;2023-06-01T00:06:04;102365.78;;;13.88;100.00
29935;BME280;19905;53.370;-6.314;2023-06-01T00:08:33;102377.00;;;13.79;100.00
29935;BME280;19905;53.370;-6.314;2023-06-01T00:11:02;102381.19;;;13.26;100.00
29935;BME280;19905;53.370;-6.314;2023-06-01T00:13:32;102381.97;;;13.12;100.00
29935;BME280;19905;53.370;-6.314;2023-06-01T00:16:01;102379.94;;;13.32;100.00
29935;BME280;19905;53.370;-6.314;2023-06-01T00:18:30;102381.19;;;13.40;100.00
29935;BME280;19905;53.370;-6.314;2023-06-01T00:20:59;102377.56;;;13.27;100.00
29935;BME280;19905;53.370;-6.314;2023-06-01T00:23:28;102382.94;;;13.11;100.00
29935;BME280;19905;53.370;-6.314;2023-06-01T00:25:57;102387.63;;;13.22;100.00
29935;BME280;19905;53.370;-6.314;2023-06-01T00:28:26;102393.44;;;13.13;100.00
29935;BME280;19905;53.370;-6.314;2023-06-01T00:30:56;102404.94;;;12.83;100.00
29935;BME280;19905;53.370;-6.314;2023-06-01T00:33:26;102395.16;;;12.69;100.00
29935;BME280;19905;53.370;-6.314;2023-06-01T00:35:54;102402.66;;;12.91;100.00
29935;BME280;19905;53.370;-6.314;2023-06-01T00:38:23;102389.38;;;13.21;100.00
29935;BME280;19905;53.370;-6.314;2023-06-01T00:40:52;102388.13;;;13.43;100.00
29935;BME280;19905;53.370;-6.314;2023-06-01T00:43:21;102377.47;;;13.71;100.00
29935;BME280;19905;53.370;-6.314;2023-06-01T00:45:49;102369.38;;;13.87;100.00
29935;BME280;19905;53.370;-6.314;2023-06-01T00:48:19;102370.41;;;13.99;100.00
29935;BME280;19905;53.370;-6.314;2023-06-01T00:50:50;102376.22;;;13.77;100.00
29935;BME280;19905;53.370;-6.314;2023-06-01T00:53:20;102378.41;;;13.85;100.00
29935;BME280;19905;53.370;-6.314;2023-06-01T00:55:49;102374.22;;;13.95;100.00
29935;BME280;19905;53.370;-6.314;2023-06-01T00:58:18;102371.16;;;14.01;100.00
29935;BME280;19905;53.370;-6.314;2023-06-01T01:00:47;102371.44;;;13.96;100.00
29935;BME280;19905;53.370;-6.314;2023-06-01T01:03:16;102364.53;;;13.94;100.00
29935;BME280;19905;53.370;-6.314;2023-06-01T01:05:46;102361.31;;;13.89;100.00
29935;BME280;19905;53.370;-6.314;2023-06-01T01:08:19;102361.66;;;13.97;100.00
29935;BME280;19905;53.370;-6.314;2023-06-01T01:10:55;102362.88;;;14.06;100.00
29935;BME280;19905;53.370;-6.314;2023-06-01T01:13:30;102355.97;;;14.03;100.00
29935;BME280;19905;53.370;-6.314;2023-06-01T01:16:07;102357.97;;;13.99;100.00
29935;BME280;19905;53.370;-6.314;2023-06-01T01:18:41;102354.66;;;13.96;100.00
29935;BME280;19905;53.370;-6.314;2023-06-01T01:21:15;102362.66;;;13.82;100.00
29935;BME280;19905;53.370;-6.314;2023-06-01T01:24:17;102363.13;;;13.74;100.00
29935;BME280;19905;53.370;-6.314;2023-06-01T01:27:06;102356.41;;;13.68;100.00
29935;BME280;19905;53.370;-6.314;2023-06-01T01:29:41;102349.50;;;13.66;100.00
29935;BME280;19905;53.370;-6.314;2023-06-01T01:32:11;102350.16;;;13.69;100.00
29935;BME280;19905;53.370;-6.314;2023-06-01T01:34:43;102347.69;;;13.66;100.00
29935;BME280;19905;53.370;-6.314;2023-06-01T01:37:12;102348.00;;;13.62;100.00
29935;BME280;19905;53.370;-6.314;2023-06-01T01:39:42;102352.06;;;13.67;100.00
29935;BME280;19905;53.370;-6.314;2023-06-01T01:42:10;102350.25;;;13.68;100.00
29935;BME280;19905;53.370;-6.314;2023-06-01T01:44:40;102337.53;;;13.73;100.00
29935;BME280;19905;53.370;-6.314;2023-06-01T01:47:15;102339.75;;;13.66;100.00
29935;BME280;19905;53.370;-6.314;2023-06-01T01:49:50;102333.94;;;13.60;100.00
29935;BME280;19905;53.370;-6.314;2023-06-01T01:52:26;102334.06;;;13.58;100.00
29935;BME280;19905;53.370;-6.314;2023-06-01T01:55:01;102343.94;;;13.56;100.00
29935;BME280;19905;53.370;-6.314;2023-06-01T01:57:32;102336.41;;;13.63;100.00
29935;BME280;19905;53.370;-6.314;2023-06-01T02:00:05;102343.81;;;13.58;100.00
29935;BME280;19905;53.370;-6.314;2023-06-01T02:02:35;102339.53;;;13.55;100.00
29935;BME280;19905;53.370;-6.314;2023-06-01T02:05:04;102341.56;;;13.52;100.00
29935;BME280;19905;53.370;-6.314;2023-06-01T02:07:33;102342.69;;;13.47;100.00
29935;BME280;19905;53.370;-6.314;2023-06-01T02:10:02;102337.47;;;13.46;100.00
29935;BME280;19905;53.370;-6.314;2023-06-01T02:12:31;102330.00;;;13.53;100.00
29935;BME280;19905;53.370;-6.314;2023-06-01T02:15:00;102317.28;;;13.58;100.00
29935;BME280;19905;53.370;-6.314;2023-06-01T02:17:31;102322.75;;;13.55;100.00
29935;BME280;19905;53.370;-6.314;2023-06-01T02:20:02;102322.22;;;13.50;100.00
29935;BME280;19905;53.370;-6.314;2023-06-01T02:22:30;102317.38;;;13.56;100.00
29935;BME280;19905;53.370;-6.314;2023-06-01T02:24:59;102311.47;;;13.51;100.00
29935;BME280;19905;53.370;-6.314;2023-06-01T02:27:27;102324.13;;;13.47;100.00
29935;BME280;19905;53.370;-6.314;2023-06-01T02:29:56;102320.25;;;13.39;100.00
29935;BME280;19905;53.370;-6.314;2023-06-01T02:32:24;102325.84;;;13.34;100.00
29935;BME280;19905;53.370;-6.314;2023-06-01T02:34:55;102326.41;;;13.39;100.00
29935;BME280;19905;53.370;-6.314;2023-06-01T02:37:24;102319.56;;;13.35;100.00
29935;BME280;19905;53.370;-6.314;2023-06-01T02:39:53;102329.91;;;13.26;100.00
29935;BME280;19905;53.370;-6.314;2023-06-01T02:42:22;102325.44;;;13.26;100.00
29935;BME280;19905;53.370;-6.314;2023-06-01T02:44:51;102322.06;;;13.24;100.00
29935;BME280;19905;53.370;-6.314;2023-06-01T02:47:19;102327.97;;;13.13;100.00
29935;BME280;19905;53.370;-6.314;2023-06-01T02:49:48;102325.88;;;13.04;100.00
29935;BME280;19905;53.370;-6.314;2023-06-01T02:52:18;102342.16;;;12.98;100.00
29935;BME280;19905;53.370;-6.314;2023-06-01T02:54:47;102338.28;;;13.04;100.00
29935;BME280;19905;53.370;-6.314;2023-06-01T02:57:16;102346.75;;;13.10;100.00
29935;BME280;19905;53.370;-6.314;2023-06-01T02:59:45;102344.00;;;13.12;100.00
29935;BME280;19905;53.370;-6.314;2023-06-01T03:02:14;102333.19;;;13.15;100.00
29935;BME280;19905;53.370;-6.314;2023-06-01T03:04:43;102330.72;;;13.12;100.00
29935;BME280;19905;53.370;-6.314;2023-06-01T03:07:12;102338.50;;;13.15;100.00
29935;BME280;19905;53.370;-6.314;2023-06-01T03:09:42;102336.50;;;13.18;100.00
29935;BME280;19905;53.370;-6.314;2023-06-01T03:12:11;102332.81;;;13.21;100.00
29935;BME280;19905;53.370;-6.314;2023-06-01T03:14:40;102325.88;;;13.18;100.00
29935;BME280;19905;53.370;-6.314;2023-06-01T03:17:09;102323.94;;;13.22;100.00
29935;BME280;19905;53.370;-6.314;2023-06-01T03:19:37;102322.63;;;13.29;100.00
29935;BME280;19905;53.370;-6.314;2023-06-01T03:22:06;102320.88;;;13.28;100.00
29935;BME280;19905;53.370;-6.314;2023-06-01T03:24:34;102321.75;;;13.29;100.00
29935;BME280;19905;53.370;-6.314;2023-06-01T03:27:05;102330.16;;;13.21;100.00
29935;BME280;19905;53.370;-6.314;2023-06-01T03:29:34;102331.78;;;13.23;100.00
29935;BME280;19905;53.370;-6.314;2023-06-01T03:32:04;102331.13;;;13.20;100.00
29935;BME280;19905;53.370;-6.314;2023-06-01T03:34:32;102327.50;;;13.07;100.00
29935;BME280;19905;53.370;-6.314;2023-06-01T03:37:04;102328.69;;;13.01;100.00
29935;BME280;19905;53.370;-6.314;2023-06-01T03:39:33;102324.44;;;12.98;100.00
29935;BME280;19905;53.370;-6.314;2023-06-01T03:42:04;102332.03;;;12.90;100.00
29935;BME280;19905;53.370;-6.314;2023-06-01T03:44:34;102327.78;;;12.88;100.00
29935;BME280;19905;53.370;-6.314;2023-06-01T03:47:03;102327.66;;;12.89;100.00
29935;BME280;19905;53.370;-6.314;2023-06-01T03:49:32;102325.28;;;12.85;100.00
29935;BME280;19905;53.370;-6.314;2023-06-01T03:52:00;102321.69;;;12.86;100.00
29935;BME280;19905;53.370;-6.314;2023-06-01T03:54:29;102329.16;;;12.79;100.00
29935;BME280;19905;53.370;-6.314;2023-06-01T03:56:58;102321.50;;;12.75;100.00
29935;BME280;19905;53.370;-6.314;2023-06-01T03:59:28;102322.34;;;12.75;100.00
29935;BME280;19905;53.370;-6.314;2023-06-01T04:01:56;102327.91;;;12.70;100.00
29935;BME280;19905;53.370;-6.314;2023-06-01T04:04:28;102315.78;;;12.66;100.00
29935;BME280;19905;53.370;-6.314;2023-06-01T04:06:56;102315.00;;;12.64;100.00
29935;BME280;19905;53.370;-6.314;2023-06-01T04:09:30;102319.28;;;12.67;100.00
29935;BME280;19905;53.370;-6.314;2023-06-01T04:11:59;102318.53;;;12.65;100.00
29935;BME280;19905;53.370;-6.314;2023-06-01T04:14:31;102321.75;;;12.70;100.00
29935;BME280;19905;53.370;-6.314;2023-06-01T04:17:00;102318.91;;;12.73;100.00
29935;BME280;19905;53.370;-6.314;2023-06-01T04:19:28;102319.13;;;12.70;100.00
29935;BME280;19905;53.370;-6.314;2023-06-01T04:21:57;102323.06;;;12.63;100.00
29935;BME280;19905;53.370;-6.314;2023-06-01T04:24:26;102330.25;;;12.61;100.00
29935;BME280;19905;53.370;-6.314;2023-06-01T04:26:55;102334.72;;;12.60;100.00
29935;BME280;19905;53.370;-6.314;2023-06-01T04:29:26;102340.28;;;12.56;100.00
29935;BME280;19905;53.370;-6.314;2023-06-01T04:31:57;102334.50;;;12.63;100.00
29935;BME280;19905;53.370;-6.314;2023-06-01T04:34:27;102328.78;;;12.71;100.00
29935;BME280;19905;53.370;-6.314;2023-06-01T04:36:56;102336.56;;;12.74;100.00
29935;BME280;19905;53.370;-6.314;2023-06-01T04:39:26;102347.44;;;12.69;100.00
29935;BME280;19905;53.370;-6.314;2023-06-01T04:41:56;102350.06;;;12.69;100.00
29935;BME280;19905;53.370;-6.314;2023-06-01T04:44:25;102344.41;;;12.76;100.00
29935;BME280;19905;53.370;-6.314;2023-06-01T04:46:56;102344.13;;;12.80;100.00
29935;BME280;19905;53.370;-6.314;2023-06-01T04:49:31;102357.66;;;12.76;100.00
29935;BME280;19905;53.370;-6.314;2023-06-01T04:52:01;102369.28;;;12.73;100.00
29935;BME280;19905;53.370;-6.314;2023-06-01T04:54:31;102354.84;;;12.79;100.00
29935;BME280;19905;53.370;-6.314;2023-06-01T04:56:59;102360.03;;;12.80;100.00
29935;BME280;19905;53.370;-6.314;2023-06-01T04:59:29;102366.91;;;12.68;100.00
29935;BME280;19905;53.370;-6.314;2023-06-01T05:02:01;102365.88;;;12.71;100.00
29935;BME280;19905;53.370;-6.314;2023-06-01T05:04:30;102364.56;;;12.78;100.00
29935;BME280;19905;53.370;-6.314;2023-06-01T05:06:58;102354.47;;;12.85;100.00
29935;BME280;19905;53.370;-6.314;2023-06-01T05:09:27;102364.22;;;12.84;100.00
29935;BME280;19905;53.370;-6.314;2023-06-01T05:11:56;102354.19;;;12.89;100.00
29935;BME280;19905;53.370;-6.314;2023-06-01T05:14:25;102359.09;;;12.81;100.00
29935;BME280;19905;53.370;-6.314;2023-06-01T05:16:53;102360.13;;;12.79;100.00
29935;BME280;19905;53.370;-6.314;2023-06-01T05:19:24;102361.47;;;12.86;100.00
29935;BME280;19905;53.370;-6.314;2023-06-01T05:21:52;102360.16;;;12.93;100.00
29935;BME280;19905;53.370;-6.314;2023-06-01T05:24:21;102366.09;;;12.82;100.00
29935;BME280;19905;53.370;-6.314;2023-06-01T05:26:49;102367.03;;;12.81;100.00
29935;BME280;19905;53.370;-6.314;2023-06-01T05:29:18;102368.75;;;12.82;100.00
29935;BME280;19905;53.370;-6.314;2023-06-01T05:44:44;102355.28;;;13.15;100.00
29935;BME280;19905;53.370;-6.314;2023-06-01T05:47:13;102361.72;;;13.11;100.00
29935;BME280;19905;53.370;-6.314;2023-06-01T05:49:41;102347.59;;;13.11;100.00
29935;BME280;19905;53.370;-6.314;2023-06-01T05:52:10;102358.09;;;13.12;100.00
29935;BME280;19905;53.370;-6.314;2023-06-01T05:54:40;102367.47;;;13.18;100.00
29935;BME280;19905;53.370;-6.314;2023-06-01T05:57:09;102360.06;;;13.25;100.00
29935;BME280;19905;53.370;-6.314;2023-06-01T05:59:38;102367.59;;;13.16;100.00
29935;BME280;19905;53.370;-6.314;2023-06-01T06:02:10;102363.97;;;13.17;100.00
29935;BME280;19905;53.370;-6.314;2023-06-01T06:04:40;102365.50;;;13.21;100.00
29935;BME280;19905;53.370;-6.314;2023-06-01T06:07:08;102370.66;;;13.25;100.00
29935;BME280;19905;53.370;-6.314;2023-06-01T06:09:37;102373.97;;;13.28;100.00
29935;BME280;19905;53.370;-6.314;2023-06-01T06:12:07;102365.59;;;13.20;100.00
29935;BME280;19905;53.370;-6.314;2023-06-01T06:14:35;102372.63;;;13.21;100.00
29935;BME280;19905;53.370;-6.314;2023-06-01T06:17:07;102367.72;;;13.43;100.00
29935;BME280;19905;53.370;-6.314;2023-06-01T06:19:37;102364.50;;;13.38;100.00
29935;BME280;19905;53.370;-6.314;2023-06-01T06:22:06;102366.03;;;13.42;100.00
29935;BME280;19905;53.370;-6.314;2023-06-01T06:24:37;102366.59;;;13.62;100.00
29935;BME280;19905;53.370;-6.314;2023-06-01T06:27:08;102364.88;;;13.61;100.00
29935;BME280;19905;53.370;-6.314;2023-06-01T06:29:40;102363.41;;;13.69;100.00
29935;BME280;19905;53.370;-6.314;2023-06-01T06:32:09;102358.31;;;13.66;100.00
29935;BME280;19905;53.370;-6.314;2023-06-01T06:34:39;102359.00;;;13.70;100.00
29935;BME280;19905;53.370;-6.314;2023-06-01T06:37:08;102358.03;;;13.71;100.00
29935;BME280;19905;53.370;-6.314;2023-06-01T06:39:38;102351.78;;;13.58;100.00
29935;BME280;19905;53.370;-6.314;2023-06-01T06:42:07;102362.81;;;13.52;100.00
29935;BME280;19905;53.370;-6.314;2023-06-01T06:44:35;102365.59;;;13.77;100.00
29935;BME280;19905;53.370;-6.314;2023-06-01T06:47:05;102360.66;;;13.85;100.00
29935;BME280;19905;53.370;-6.314;2023-06-01T06:49:34;102360.56;;;13.87;100.00
29935;BME280;19905;53.370;-6.314;2023-06-01T06:52:05;102359.16;;;13.67;100.00
29935;BME280;19905;53.370;-6.314;2023-06-01T06:54:35;102362.94;;;13.77;100.00
29935;BME280;19905;53.370;-6.314;2023-06-01T06:57:04;102359.19;;;14.08;100.00
29935;BME280;19905;53.370;-6.314;2023-06-01T06:59:33;102358.16;;;14.23;100.00
29935;BME280;19905;53.370;-6.314;2023-06-01T07:02:02;102363.72;;;14.20;100.00
29935;BME280;19905;53.370;-6.314;2023-06-01T07:04:32;102359.66;;;14.01;100.00
29935;BME280;19905;53.370;-6.314;2023-06-01T07:07:04;102358.00;;;13.85;100.00
29935;BME280;19905;53.370;-6.314;2023-06-01T07:09:33;102363.97;;;13.89;100.00
29935;BME280;19905;53.370;-6.314;2023-06-01T07:12:01;102348.84;;;14.04;100.00
29935;BME280;19905;53.370;-6.314;2023-06-01T07:14:30;102347.91;;;14.05;100.00
29935;BME280;19905;53.370;-6.314;2023-06-01T07:16:58;102354.47;;;13.99;100.00
29935;BME280;19905;53.370;-6.314;2023-06-01T07:19:27;102350.25;;;14.09;100.00
29935;BME280;19905;53.370;-6.314;2023-06-01T07:22:00;102343.31;;;14.34;100.00
29935;BME280;19905;53.370;-6.314;2023-06-01T07:24:31;102335.31;;;14.21;100.00
29935;BME280;19905;53.370;-6.314;2023-06-01T07:26:59;102330.84;;;14.21;100.00
29935;BME280;19905;53.370;-6.314;2023-06-01T07:29:28;102338.00;;;14.48;100.00
29935;BME280;19905;53.370;-6.314;2023-06-01T07:31:57;102330.16;;;14.72;100.00
29935;BME280;19905;53.370;-6.314;2023-06-01T07:34:26;102328.19;;;14.61;100.00
29935;BME280;19905;53.370;-6.314;2023-06-01T07:36:54;102326.81;;;14.56;100.00
29935;BME280;19905;53.370;-6.314;2023-06-01T07:39:44;102330.47;;;14.67;100.00
29935;BME280;19905;53.370;-6.314;2023-06-01T07:42:14;102319.41;;;14.73;100.00
29935;BME280;19905;53.370;-6.314;2023-06-01T07:44:44;102313.44;;;14.70;100.00
29935;BME280;19905;53.370;-6.314;2023-06-01T07:47:13;102325.84;;;14.57;100.00
29935;BME280;19905;53.370;-6.314;2023-06-01T07:49:42;102331.28;;;14.55;100.00
29935;BME280;19905;53.370;-6.314;2023-06-01T07:52:12;102326.63;;;14.59;100.00
29935;BME280;19905;53.370;-6.314;2023-06-01T07:54:41;102326.84;;;14.68;100.00
29935;BME280;19905;53.370;-6.314;2023-06-01T07:57:11;102335.56;;;14.70;100.00
29935;BME280;19905;53.370;-6.314;2023-06-01T07:59:39;102334.94;;;14.67;100.00
29935;BME280;19905;53.370;-6.314;2023-06-01T08:02:08;102336.84;;;14.78;100.00
29935;BME280;19905;53.370;-6.314;2023-06-01T08:04:38;102337.59;;;14.67;100.00
29935;BME280;19905;53.370;-6.314;2023-06-01T08:07:08;102340.91;;;14.96;100.00
29935;BME280;19905;53.370;-6.314;2023-06-01T08:09:36;102336.47;;;15.09;100.00
29935;BME280;19905;53.370;-6.314;2023-06-01T08:12:06;102334.84;;;15.19;100.00
29935;BME280;19905;53.370;-6.314;2023-06-01T08:14:36;102337.28;;;14.97;100.00
29935;BME280;19905;53.370;-6.314;2023-06-01T08:17:07;102331.00;;;15.11;100.00
29935;BME280;19905;53.370;-6.314;2023-06-01T08:19:39;102330.69;;;15.03;100.00
29935;BME280;19905;53.370;-6.314;2023-06-01T08:22:09;102325.25;;;14.79;100.00
29935;BME280;19905;53.370;-6.314;2023-06-01T08:24:39;102325.28;;;14.91;100.00
29935;BME280;19905;53.370;-6.314;2023-06-01T08:27:18;102333.13;;;14.93;100.00
29935;BME280;19905;53.370;-6.314;2023-06-01T08:29:52;102335.28;;;15.00;100.00
29935;BME280;19905;53.370;-6.314;2023-06-01T08:32:21;102339.75;;;15.00;100.00
29935;BME280;19905;53.370;-6.314;2023-06-01T08:34:51;102333.56;;;15.25;100.00
29935;BME280;19905;53.370;-6.314;2023-06-01T08:37:20;102338.34;;;15.33;100.00
29935;BME280;19905;53.370;-6.314;2023-06-01T08:39:50;102329.19;;;15.37;100.00
29935;BME280;19905;53.370;-6.314;2023-06-01T08:42:25;102335.59;;;15.21;100.00
29935;BME280;19905;53.370;-6.314;2023-06-01T08:44:57;102327.50;;;15.23;100.00
29935;BME280;19905;53.370;-6.314;2023-06-01T08:47:28;102326.97;;;15.18;100.00
29935;BME280;19905;53.370;-6.314;2023-06-01T08:49:58;102334.19;;;15.16;100.00
29935;BME280;19905;53.370;-6.314;2023-06-01T08:52:29;102336.22;;;15.25;100.00
29935;BME280;19905;53.370;-6.314;2023-06-01T08:54:59;102330.56;;;15.42;100.00
29935;BME280;19905;53.370;-6.314;2023-06-01T08:57:29;102331.94;;;15.48;100.00
29935;BME280;19905;53.370;-6.314;2023-06-01T09:00:00;102322.19;;;15.23;100.00
29935;BME280;19905;53.370;-6.314;2023-06-01T09:02:31;102325.66;;;15.49;100.00
29935;BME280;19905;53.370;-6.314;2023-06-01T09:04:59;102328.19;;;15.76;100.00
29935;BME280;19905;53.370;-6.314;2023-06-01T09:07:28;102333.09;;;15.44;100.00
29935;BME280;19905;53.370;-6.314;2023-06-01T09:10:01;102328.59;;;15.08;100.00
29935;BME280;19905;53.370;-6.314;2023-06-01T09:12:30;102335.59;;;15.21;100.00
29935;BME280;19905;53.370;-6.314;2023-06-01T09:15:20;102321.31;;;15.35;100.00
29935;BME280;19905;53.370;-6.314;2023-06-01T09:17:50;102327.06;;;15.42;100.00
29935;BME280;19905;53.370;-6.314;2023-06-01T09:20:24;102329.69;;;15.55;100.00
29935;BME280;19905;53.370;-6.314;2023-06-01T09:22:54;102334.97;;;15.80;100.00
29935;BME280;19905;53.370;-6.314;2023-06-01T09:25:25;102330.06;;;15.87;100.00
29935;BME280;19905;53.370;-6.314;2023-06-01T09:27:57;102329.72;;;15.67;100.00
29935;BME280;19905;53.370;-6.314;2023-06-01T09:30:38;102332.69;;;15.50;100.00
29935;BME280;19905;53.370;-6.314;2023-06-01T09:33:10;102321.03;;;15.77;100.00
29935;BME280;19905;53.370;-6.314;2023-06-01T09:35:43;102318.91;;;15.82;100.00
29935;BME280;19905;53.370;-6.314;2023-06-01T09:38:20;102309.97;;;15.57;100.00
29935;BME280;19905;53.370;-6.314;2023-06-01T09:40:57;102317.47;;;15.89;100.00
29935;BME280;19905;53.370;-6.314;2023-06-01T09:43:26;102313.34;;;16.09;100.00
29935;BME280;19905;53.370;-6.314;2023-06-01T09:46:10;102316.22;;;16.06;100.00
29935;BME280;19905;53.370;-6.314;2023-06-01T09:48:41;102308.44;;;16.02;100.00
29935;BME280;19905;53.370;-6.314;2023-06-01T09:51:21;102306.13;;;15.74;100.00
29935;BME280;19905;53.370;-6.314;2023-06-01T09:53:50;102319.41;;;15.87;100.00
29935;BME280;19905;53.370;-6.314;2023-06-01T09:56:19;102313.00;;;16.13;100.00
29935;BME280;19905;53.370;-6.314;2023-06-01T09:58:47;102300.72;;;16.70;100.00
29935;BME280;19905;53.370;-6.314;2023-06-01T10:01:18;102303.53;;;16.80;100.00
29935;BME280;19905;53.370;-6.314;2023-06-01T10:03:49;102299.34;;;17.11;100.00
29935;BME280;19905;53.370;-6.314;2023-06-01T10:06:21;102303.22;;;16.60;100.00
29935;BME280;19905;53.370;-6.314;2023-06-01T10:08:50;102303.59;;;16.56;100.00
29935;BME280;19905;53.370;-6.314;2023-06-01T10:11:19;102308.88;;;16.44;100.00
29935;BME280;19905;53.370;-6.314;2023-06-01T10:13:49;102311.53;;;16.44;100.00
29935;BME280;19905;53.370;-6.314;2023-06-01T10:16:20;102309.63;;;16.58;100.00
29935;BME280;19905;53.370;-6.314;2023-06-01T10:18:49;102314.03;;;16.59;100.00
29935;BME280;19905;53.370;-6.314;2023-06-01T10:21:18;102312.63;;;16.42;100.00
29935;BME280;19905;53.370;-6.314;2023-06-01T10:23:47;102311.63;;;16.32;100.00
29935;BME280;19905;53.370;-6.314;2023-06-01T10:26:16;102317.16;;;16.52;100.00
29935;BME280;19905;53.370;-6.314;2023-06-01T10:28:47;102320.34;;;16.34;100.00
29935;BME280;19905;53.370;-6.314;2023-06-01T10:31:37;102323.78;;;16.36;100.00
29935;BME280;19905;53.370;-6.314;2023-06-01T10:34:07;102321.75;;;16.50;100.00
29935;BME280;19905;53.370;-6.314;2023-06-01T10:37:11;102334.59;;;15.97;100.00
29935;BME280;19905;53.370;-6.314;2023-06-01T10:39:41;102325.31;;;15.66;100.00
29935;BME280;19905;53.370;-6.314;2023-06-01T10:42:34;102321.97;;;15.75;100.00
29935;BME280;19905;53.370;-6.314;2023-06-01T10:45:06;102324.34;;;16.04;100.00
29935;BME280;19905;53.370;-6.314;2023-06-01T10:47:46;102315.66;;;16.37;100.00
29935;BME280;19905;53.370;-6.314;2023-06-01T10:50:18;102320.75;;;16.16;100.00
29935;BME280;19905;53.370;-6.314;2023-06-01T10:52:47;102313.41;;;16.55;100.00
29935;BME280;19905;53.370;-6.314;2023-06-01T10:55:21;102312.88;;;16.74;100.00
29935;BME280;19905;53.370;-6.314;2023-06-01T10:58:21;102309.63;;;16.82;100.00
29935;BME280;19905;53.370;-6.314;2023-06-01T11:00:53;102314.09;;;16.81;100.00
29935;BME280;19905;53.370;-6.314;2023-06-01T11:03:44;102305.16;;;17.05;100.00
29935;BME280;19905;53.370;-6.314;2023-06-01T11:06:24;102298.50;;;17.33;100.00
29935;BME280;19905;53.370;-6.314;2023-06-01T11:08:56;102318.69;;;16.44;100.00
29935;BME280;19905;53.370;-6.314;2023-06-01T11:11:58;102316.88;;;16.44;100.00
29935;BME280;19905;53.370;-6.314;2023-06-01T11:14:30;102320.44;;;16.56;100.00
29935;BME280;19905;53.370;-6.314;2023-06-01T11:17:26;102314.03;;;15.99;100.00
29935;BME280;19905;53.370;-6.314;2023-06-01T11:20:01;102304.69;;;16.64;100.00
29935;BME280;19905;53.370;-6.314;2023-06-01T11:22:38;102297.00;;;16.84;100.00
29935;BME280;19905;53.370;-6.314;2023-06-01T11:25:08;102298.81;;;16.83;100.00
29935;BME280;19905;53.370;-6.314;2023-06-01T11:27:44;102291.88;;;16.81;100.00
29935;BME280;19905;53.370;-6.314;2023-06-01T11:30:19;102289.25;;;17.25;100.00
29935;BME280;19905;53.370;-6.314;2023-06-01T11:32:51;102287.19;;;16.95;100.00
29935;BME280;19905;53.370;-6.314;2023-06-01T11:35:23;102285.75;;;17.14;100.00
29935;BME280;19905;53.370;-6.314;2023-06-01T11:37:55;102291.06;;;17.36;100.00
29935;BME280;19905;53.370;-6.314;2023-06-01T11:40:24;102292.00;;;17.69;100.00
29935;BME280;19905;53.370;-6.314;2023-06-01T11:43:00;102280.47;;;18.12;100.00
29935;BME280;19905;53.370;-6.314;2023-06-01T11:45:29;102289.09;;;17.49;100.00
29935;BME280;19905;53.370;-6.314;2023-06-01T11:48:09;102300.16;;;17.78;100.00
29935;BME280;19905;53.370;-6.314;2023-06-01T11:50:46;102306.22;;;17.69;100.00
29935;BME280;19905;53.370;-6.314;2023-06-01T11:53:15;102297.03;;;17.28;100.00
29935;BME280;19905;53.370;-6.314;2023-06-01T11:55:54;102310.34;;;17.62;100.00
29935;BME280;19905;53.370;-6.314;2023-06-01T11:58:24;102308.06;;;17.35;100.00
29935;BME280;19905;53.370;-6.314;2023-06-01T12:00:53;102293.88;;;17.01;100.00
29935;BME280;19905;53.370;-6.314;2023-06-01T12:03:23;102302.81;;;17.78;100.00
29935;BME280;19905;53.370;-6.314;2023-06-01T12:05:55;102305.00;;;17.85;100.00
29935;BME280;19905;53.370;-6.314;2023-06-01T12:08:25;102297.72;;;17.64;100.00
29935;BME280;19905;53.370;-6.314;2023-06-01T12:10:55;102304.75;;;17.88;100.00
29935;BME280;19905;53.370;-6.314;2023-06-01T12:13:24;102302.44;;;18.47;100.00
29935;BME280;19905;53.370;-6.314;2023-06-01T12:15:53;102307.72;;;18.06;100.00
29935;BME280;19905;53.370;-6.314;2023-06-01T12:18:31;102303.69;;;18.32;100.00
29935;BME280;19905;53.370;-6.314;2023-06-01T12:21:08;102305.06;;;17.94;100.00
29935;BME280;19905;53.370;-6.314;2023-06-01T12:23:37;102306.22;;;17.69;100.00
29935;BME280;19905;53.370;-6.314;2023-06-01T12:26:06;102300.88;;;18.66;100.00
29935;BME280;19905;53.370;-6.314;2023-06-01T12:28:48;102298.06;;;18.46;100.00
29935;BME280;19905;53.370;-6.314;2023-06-01T12:31:25;102305.56;;;18.52;100.00
29935;BME280;19905;53.370;-6.314;2023-06-01T12:33:56;102302.38;;;18.38;100.00
29935;BME280;19905;53.370;-6.314;2023-06-01T12:36:31;102304.06;;;18.39;100.00
29935;BME280;19905;53.370;-6.314;2023-06-01T12:39:01;102304.16;;;18.16;100.00
29935;BME280;19905;53.370;-6.314;2023-06-01T12:41:30;102311.69;;;18.43;100.00
29935;BME280;19905;53.370;-6.314;2023-06-01T12:43:59;102301.34;;;18.18;100.00
29935;BME280;19905;53.370;-6.314;2023-06-01T12:46:29;102309.09;;;17.89;100.00
29935;BME280;19905;53.370;-6.314;2023-06-01T12:49:11;102304.16;;;18.16;100.00
29935;BME280;19905;53.370;-6.314;2023-06-01T12:51:42;102319.91;;;17.98;100.00
29935;BME280;19905;53.370;-6.314;2023-06-01T12:54:10;102312.78;;;17.65;100.00
29935;BME280;19905;53.370;-6.314;2023-06-01T12:56:39;102312.59;;;18.33;100.00
29935;BME280;19905;53.370;-6.314;2023-06-01T12:59:08;102322.09;;;18.25;100.00
29935;BME280;19905;53.370;-6.314;2023-06-01T13:01:37;102319.47;;;18.46;100.00
29935;BME280;19905;53.370;-6.314;2023-06-01T13:04:06;102333.44;;;18.18;100.00